sensor_id;sensor_type;location;lat;lon;timestamp;P1;durP1;ratioP1;P2;durP2;ratioP2
20890;SDS011;10605;52.968;8.844;2023-07-30T00:01:38;8.57;;;6.20;;
20890;SDS011;10605;52.968;8.844;2023-07-30T00:04:03;7.22;;;6.60;;
20890;SDS011;10605;52.968;8.844;2023-07-30T00:06:29;6.85;;;6.30;;
20890;SDS011;10605;52.968;8.844;2023-07-30T00:08:55;12.13;;;5.80;;
20890;SDS011;10605;52.968;8.844;2023-07-30T00:11:20;9.75;;;6.40;;
20890;SDS011;10605;52.968;8.844;2023-07-30T00:13:46;9.98;;;6.22;;
20890;SDS011;10605;52.968;8.844;2023-07-30T00:16:12;9.93;;;6.43;;
20890;SDS011;10605;52.968;8.844;2023-07-30T00:18:37;6.88;;;6.28;;
20890;SDS011;10605;52.968;8.844;2023-07-30T00:21:03;8.02;;;6.85;;
20890;SDS011;10605;52.968;8.844;2023-07-30T00:23:28;6.43;;;5.97;;
20890;SDS011;10605;52.968;8.844;2023-07-30T00:25:54;10.90;;;6.13;;
20890;SDS011;10605;52.968;8.844;2023-07-30T00:28:19;6.25;;;5.75;;
20890;SDS011;10605;52.968;8.844;2023-07-30T00:30:46;6.32;;;5.45;;
20890;SDS011;10605;52.968;8.844;2023-07-30T00:33:11;9.57;;;5.88;;
20890;SDS011;10605;52.968;8.844;2023-07-30T00:35:37;7.07;;;6.00;;
20890;SDS011;10605;52.968;8.844;2023-07-30T00:38:03;5.80;;;5.30;;
20890;SDS011;10605;52.968;8.844;2023-07-30T00:40:28;7.38;;;5.70;;
20890;SDS011;10605;52.968;8.844;2023-07-30T00:42:54;14.00;;;5.78;;
20890;SDS011;10605;52.968;8.844;2023-07-30T00:45:20;6.57;;;5.40;;
20890;SDS011;10605;52.968;8.844;2023-07-30T00:47:46;9.68;;;6.03;;
20890;SDS011;10605;52.968;8.844;2023-07-30T00:50:12;6.85;;;5.55;;
20890;SDS011;10605;52.968;8.844;2023-07-30T00:52:39;9.20;;;5.47;;
20890;SDS011;10605;52.968;8.844;2023-07-30T00:55:05;7.22;;;5.60;;
20890;SDS011;10605;52.968;8.844;2023-07-30T00:57:35;6.25;;;5.20;;
20890;SDS011;10605;52.968;8.844;2023-07-30T01:00:02;8.88;;;5.57;;
20890;SDS011;10605;52.968;8.844;2023-07-30T01:02:31;5.30;;;4.90;;
20890;SDS011;10605;52.968;8.844;2023-07-30T01:04:57;8.70;;;5.80;;
20890;SDS011;10605;52.968;8.844;2023-07-30T01:07:25;10.27;;;5.30;;
20890;SDS011;10605;52.968;8.844;2023-07-30T01:09:50;8.15;;;5.97;;
20890;SDS011;10605;52.968;8.844;2023-07-30T01:12:17;9.30;;;5.25;;
20890;SDS011;10605;52.968;8.844;2023-07-30T01:14:43;7.45;;;5.70;;
20890;SDS011;10605;52.968;8.844;2023-07-30T01:17:11;8.70;;;5.18;;
20890;SDS011;10605;52.968;8.844;2023-07-30T01:19:37;11.85;;;5.15;;
20890;SDS011;10605;52.968;8.844;2023-07-30T01:22:03;6.72;;;5.57;;
20890;SDS011;10605;52.968;8.844;2023-07-30T01:24:28;12.02;;;5.65;;
20890;SDS011;10605;52.968;8.844;2023-07-30T01:32:00;6.88;;;4.40;;
20890;SDS011;10605;52.968;8.844;2023-07-30T01:34:29;6.00;;;4.90;;
20890;SDS011;10605;52.968;8.844;2023-07-30T01:36:59;9.70;;;5.25;;
20890;SDS011;10605;52.968;8.844;2023-07-30T01:39:26;6.97;;;5.25;;
20890;SDS011;10605;52.968;8.844;2023-07-30T01:41:55;5.40;;;4.80;;
20890;SDS011;10605;52.968;8.844;2023-07-30T01:44:21;5.80;;;4.43;;
20890;SDS011;10605;52.968;8.844;2023-07-30T01:46:47;11.30;;;4.78;;
20890;SDS011;10605;52.968;8.844;2023-07-30T01:49:12;7.70;;;5.18;;
20890;SDS011;10605;52.968;8.844;2023-07-30T01:51:38;6.43;;;5.05;;
20890;SDS011;10605;52.968;8.844;2023-07-30T01:54:04;8.45;;;5.20;;
20890;SDS011;10605;52.968;8.844;2023-07-30T01:56:29;7.60;;;4.80;;
20890;SDS011;10605;52.968;8.844;2023-07-30T01:58:55;6.57;;;5.80;;
20890;SDS011;10605;52.968;8.844;2023-07-30T02:01:20;9.55;;;5.05;;
20890;SDS011;10605;52.968;8.844;2023-07-30T02:03:47;6.03;;;5.53;;
20890;SDS011;10605;52.968;8.844;2023-07-30T02:06:15;9.38;;;5.85;;
20890;SDS011;10605;52.968;8.844;2023-07-30T02:08:41;6.43;;;5.82;;
20890;SDS011;10605;52.968;8.844;2023-07-30T02:11:06;9.20;;;5.47;;
20890;SDS011;10605;52.968;8.844;2023-07-30T02:13:32;8.85;;;5.68;;
20890;SDS011;10605;52.968;8.844;2023-07-30T02:15:58;7.82;;;6.72;;
20890;SDS011;10605;52.968;8.844;2023-07-30T02:18:23;6.65;;;6.05;;
20890;SDS011;10605;52.968;8.844;2023-07-30T02:20:49;12.10;;;6.45;;
20890;SDS011;10605;52.968;8.844;2023-07-30T02:23:15;7.85;;;6.53;;
20890;SDS011;10605;52.968;8.844;2023-07-30T02:25:43;10.15;;;6.53;;
20890;SDS011;10605;52.968;8.844;2023-07-30T02:28:09;7.78;;;6.97;;
20890;SDS011;10605;52.968;8.844;2023-07-30T02:30:34;13.15;;;7.00;;
20890;SDS011;10605;52.968;8.844;2023-07-30T02:33:00;8.65;;;7.80;;
20890;SDS011;10605;52.968;8.844;2023-07-30T02:35:26;7.93;;;6.90;;
20890;SDS011;10605;52.968;8.844;2023-07-30T02:37:52;7.63;;;6.90;;
20890;SDS011;10605;52.968;8.844;2023-07-30T02:40:17;14.27;;;8.10;;
20890;SDS011;10605;52.968;8.844;2023-07-30T02:42:43;9.20;;;7.90;;
20890;SDS011;10605;52.968;8.844;2023-07-30T02:45:09;11.07;;;7.97;;
20890;SDS011;10605;52.968;8.844;2023-07-30T02:47:34;12.43;;;8.10;;
20890;SDS011;10605;52.968;8.844;2023-07-30T02:50:01;9.45;;;8.38;;
20890;SDS011;10605;52.968;8.844;2023-07-30T02:52:28;9.32;;;7.82;;
20890;SDS011;10605;52.968;8.844;2023-07-30T02:54:53;12.70;;;9.15;;
20890;SDS011;10605;52.968;8.844;2023-07-30T02:57:19;14.27;;;7.68;;
20890;SDS011;10605;52.968;8.844;2023-07-30T02:59:45;10.57;;;8.38;;
20890;SDS011;10605;52.968;8.844;2023-07-30T03:02:10;8.93;;;8.13;;
20890;SDS011;10605;52.968;8.844;2023-07-30T03:04:36;18.15;;;8.07;;
20890;SDS011;10605;52.968;8.844;2023-07-30T03:07:02;15.85;;;8.25;;
20890;SDS011;10605;52.968;8.844;2023-07-30T03:09:27;13.27;;;8.80;;
20890;SDS011;10605;52.968;8.844;2023-07-30T03:11:53;16.65;;;8.20;;
20890;SDS011;10605;52.968;8.844;2023-07-30T03:14:19;8.77;;;7.88;;
20890;SDS011;10605;52.968;8.844;2023-07-30T03:16:48;14.52;;;8.45;;
20890;SDS011;10605;52.968;8.844;2023-07-30T03:19:14;13.48;;;7.25;;
20890;SDS011;10605;52.968;8.844;2023-07-30T03:21:40;7.90;;;7.15;;
20890;SDS011;10605;52.968;8.844;2023-07-30T03:24:06;18.55;;;9.73;;
20890;SDS011;10605;52.968;8.844;2023-07-30T03:26:32;8.93;;;7.00;;
20890;SDS011;10605;52.968;8.844;2023-07-30T03:28:57;18.92;;;6.95;;
20890;SDS011;10605;52.968;8.844;2023-07-30T03:31:23;16.35;;;7.20;;
20890;SDS011;10605;52.968;8.844;2023-07-30T03:33:48;14.45;;;6.88;;
20890;SDS011;10605;52.968;8.844;2023-07-30T03:36:14;15.05;;;7.85;;
20890;SDS011;10605;52.968;8.844;2023-07-30T03:38:40;16.45;;;6.45;;
20890;SDS011;10605;52.968;8.844;2023-07-30T03:41:06;14.35;;;6.35;;
20890;SDS011;10605;52.968;8.844;2023-07-30T03:43:32;16.98;;;6.93;;
20890;SDS011;10605;52.968;8.844;2023-07-30T03:45:59;13.90;;;6.05;;
20890;SDS011;10605;52.968;8.844;2023-07-30T03:48:24;14.63;;;6.47;;
20890;SDS011;10605;52.968;8.844;2023-07-30T03:50:50;12.23;;;6.40;;
20890;SDS011;10605;52.968;8.844;2023-07-30T03:53:17;17.00;;;6.78;;
20890;SDS011;10605;52.968;8.844;2023-07-30T03:55:42;17.00;;;6.00;;
20890;SDS011;10605;52.968;8.844;2023-07-30T03:58:08;11.73;;;5.60;;
20890;SDS011;10605;52.968;8.844;2023-07-30T04:00:33;11.32;;;5.60;;
20890;SDS011;10605;52.968;8.844;2023-07-30T04:02:59;17.75;;;6.18;;
20890;SDS011;10605;52.968;8.844;2023-07-30T04:05:25;12.25;;;5.65;;
20890;SDS011;10605;52.968;8.844;2023-07-30T04:07:50;12.57;;;5.15;;
20890;SDS011;10605;52.968;8.844;2023-07-30T04:10:16;12.10;;;4.97;;
20890;SDS011;10605;52.968;8.844;2023-07-30T04:12:42;20.95;;;5.45;;
20890;SDS011;10605;52.968;8.844;2023-07-30T04:15:07;11.38;;;4.65;;
20890;SDS011;10605;52.968;8.844;2023-07-30T04:17:36;7.95;;;3.95;;
20890;SDS011;10605;52.968;8.844;2023-07-30T04:20:03;12.77;;;4.75;;
20890;SDS011;10605;52.968;8.844;2023-07-30T04:22:29;16.02;;;4.40;;
20890;SDS011;10605;52.968;8.844;2023-07-30T04:24:55;12.77;;;3.97;;
20890;SDS011;10605;52.968;8.844;2023-07-30T04:27:21;6.65;;;3.83;;
20890;SDS011;10605;52.968;8.844;2023-07-30T04:29:47;11.13;;;4.45;;
20890;SDS011;10605;52.968;8.844;2023-07-30T04:32:12;9.68;;;3.70;;
20890;SDS011;10605;52.968;8.844;2023-07-30T04:34:38;12.25;;;4.00;;
20890;SDS011;10605;52.968;8.844;2023-07-30T04:37:04;10.68;;;4.20;;
20890;SDS011;10605;52.968;8.844;2023-07-30T04:39:31;9.45;;;4.28;;
20890;SDS011;10605;52.968;8.844;2023-07-30T04:41:58;13.15;;;4.90;;
20890;SDS011;10605;52.968;8.844;2023-07-30T04:44:23;11.85;;;3.50;;
20890;SDS011;10605;52.968;8.844;2023-07-30T04:46:49;11.38;;;3.83;;
20890;SDS011;10605;52.968;8.844;2023-07-30T04:49:15;10.38;;;3.40;;
20890;SDS011;10605;52.968;8.844;2023-07-30T04:51:41;7.05;;;3.80;;
20890;SDS011;10605;52.968;8.844;2023-07-30T04:54:06;9.18;;;3.80;;
20890;SDS011;10605;52.968;8.844;2023-07-30T04:56:32;14.65;;;3.78;;
20890;SDS011;10605;52.968;8.844;2023-07-30T04:58:57;10.38;;;3.47;;
20890;SDS011;10605;52.968;8.844;2023-07-30T05:01:24;6.45;;;3.20;;
20890;SDS011;10605;52.968;8.844;2023-07-30T05:03:50;6.85;;;3.13;;
20890;SDS011;10605;52.968;8.844;2023-07-30T05:06:15;7.75;;;3.33;;
20890;SDS011;10605;52.968;8.844;2023-07-30T05:08:41;9.45;;;2.90;;
20890;SDS011;10605;52.968;8.844;2023-07-30T05:11:07;9.05;;;3.40;;
20890;SDS011;10605;52.968;8.844;2023-07-30T05:13:32;11.73;;;3.15;;
20890;SDS011;10605;52.968;8.844;2023-07-30T05:15:58;16.60;;;3.83;;
20890;SDS011;10605;52.968;8.844;2023-07-30T05:18:24;10.25;;;3.35;;
20890;SDS011;10605;52.968;8.844;2023-07-30T05:20:50;14.25;;;3.67;;
20890;SDS011;10605;52.968;8.844;2023-07-30T05:23:15;5.03;;;3.00;;
20890;SDS011;10605;52.968;8.844;2023-07-30T05:25:41;5.00;;;2.80;;
20890;SDS011;10605;52.968;8.844;2023-07-30T05:28:07;10.52;;;3.35;;
20890;SDS011;10605;52.968;8.844;2023-07-30T05:30:32;8.13;;;2.88;;
20890;SDS011;10605;52.968;8.844;2023-07-30T05:32:58;10.10;;;3.20;;
20890;SDS011;10605;52.968;8.844;2023-07-30T05:35:24;14.07;;;2.92;;
20890;SDS011;10605;52.968;8.844;2023-07-30T05:37:49;6.32;;;2.70;;
20890;SDS011;10605;52.968;8.844;2023-07-30T05:40:15;8.50;;;3.03;;
20890;SDS011;10605;52.968;8.844;2023-07-30T05:42:41;10.98;;;2.60;;
20890;SDS011;10605;52.968;8.844;2023-07-30T05:45:07;6.65;;;2.47;;
20890;SDS011;10605;52.968;8.844;2023-07-30T05:47:33;8.88;;;2.97;;
20890;SDS011;10605;52.968;8.844;2023-07-30T05:49:58;7.38;;;2.65;;
20890;SDS011;10605;52.968;8.844;2023-07-30T05:52:24;13.48;;;3.08;;
20890;SDS011;10605;52.968;8.844;2023-07-30T05:54:50;13.85;;;3.33;;
20890;SDS011;10605;52.968;8.844;2023-07-30T05:57:15;7.75;;;2.80;;
20890;SDS011;10605;52.968;8.844;2023-07-30T05:59:41;10.90;;;3.17;;
20890;SDS011;10605;52.968;8.844;2023-07-30T06:02:06;11.38;;;2.78;;
20890;SDS011;10605;52.968;8.844;2023-07-30T06:04:32;4.97;;;2.22;;
20890;SDS011;10605;52.968;8.844;2023-07-30T06:07:02;9.88;;;2.25;;
20890;SDS011;10605;52.968;8.844;2023-07-30T06:09:28;14.00;;;3.17;;
20890;SDS011;10605;52.968;8.844;2023-07-30T06:11:55;7.45;;;3.28;;
20890;SDS011;10605;52.968;8.844;2023-07-30T06:14:22;5.38;;;2.80;;
20890;SDS011;10605;52.968;8.844;2023-07-30T06:16:48;13.15;;;3.33;;
20890;SDS011;10605;52.968;8.844;2023-07-30T06:19:14;16.55;;;2.90;;
20890;SDS011;10605;52.968;8.844;2023-07-30T06:21:39;7.70;;;3.08;;
20890;SDS011;10605;52.968;8.844;2023-07-30T06:24:05;11.88;;;3.38;;
20890;SDS011;10605;52.968;8.844;2023-07-30T06:26:31;12.35;;;3.28;;
20890;SDS011;10605;52.968;8.844;2023-07-30T06:28:57;14.20;;;3.45;;
20890;SDS011;10605;52.968;8.844;2023-07-30T06:31:22;10.73;;;3.17;;
20890;SDS011;10605;52.968;8.844;2023-07-30T06:33:48;12.43;;;3.40;;
20890;SDS011;10605;52.968;8.844;2023-07-30T06:36:14;11.00;;;3.22;;
20890;SDS011;10605;52.968;8.844;2023-07-30T06:38:40;13.32;;;3.40;;
20890;SDS011;10605;52.968;8.844;2023-07-30T06:41:05;11.52;;;3.38;;
20890;SDS011;10605;52.968;8.844;2023-07-30T06:43:31;10.70;;;3.08;;
20890;SDS011;10605;52.968;8.844;2023-07-30T06:45:57;14.73;;;3.65;;
20890;SDS011;10605;52.968;8.844;2023-07-30T06:48:22;14.77;;;3.85;;
20890;SDS011;10605;52.968;8.844;2023-07-30T06:50:48;7.35;;;3.63;;
20890;SDS011;10605;52.968;8.844;2023-07-30T06:53:13;11.43;;;3.35;;
20890;SDS011;10605;52.968;8.844;2023-07-30T06:55:39;13.60;;;3.45;;
20890;SDS011;10605;52.968;8.844;2023-07-30T06:58:05;15.32;;;3.30;;
20890;SDS011;10605;52.968;8.844;2023-07-30T07:00:31;7.07;;;3.33;;
20890;SDS011;10605;52.968;8.844;2023-07-30T07:02:56;12.43;;;3.53;;
20890;SDS011;10605;52.968;8.844;2023-07-30T07:05:22;16.38;;;4.35;;
20890;SDS011;10605;52.968;8.844;2023-07-30T07:07:51;8.75;;;3.20;;
20890;SDS011;10605;52.968;8.844;2023-07-30T07:10:20;16.65;;;3.65;;
20890;SDS011;10605;52.968;8.844;2023-07-30T07:12:46;14.40;;;3.50;;
20890;SDS011;10605;52.968;8.844;2023-07-30T07:15:12;10.38;;;3.92;;
20890;SDS011;10605;52.968;8.844;2023-07-30T07:17:38;10.75;;;3.33;;
20890;SDS011;10605;52.968;8.844;2023-07-30T07:20:05;15.07;;;3.78;;
20890;SDS011;10605;52.968;8.844;2023-07-30T07:22:32;12.80;;;3.63;;
20890;SDS011;10605;52.968;8.844;2023-07-30T07:24:58;10.85;;;3.70;;
20890;SDS011;10605;52.968;8.844;2023-07-30T07:27:24;9.60;;;3.47;;
20890;SDS011;10605;52.968;8.844;2023-07-30T07:29:50;7.90;;;3.45;;
20890;SDS011;10605;52.968;8.844;2023-07-30T07:32:16;8.02;;;3.58;;
20890;SDS011;10605;52.968;8.844;2023-07-30T07:34:45;15.75;;;4.22;;
20890;SDS011;10605;52.968;8.844;2023-07-30T07:37:12;12.90;;;3.58;;
20890;SDS011;10605;52.968;8.844;2023-07-30T07:39:40;11.55;;;3.80;;
20890;SDS011;10605;52.968;8.844;2023-07-30T07:42:06;13.23;;;3.38;;
20890;SDS011;10605;52.968;8.844;2023-07-30T07:44:32;10.55;;;3.08;;
20890;SDS011;10605;52.968;8.844;2023-07-30T07:46:57;8.57;;;2.83;;
20890;SDS011;10605;52.968;8.844;2023-07-30T07:49:23;13.60;;;3.17;;
20890;SDS011;10605;52.968;8.844;2023-07-30T07:51:49;7.60;;;3.03;;
20890;SDS011;10605;52.968;8.844;2023-07-30T07:54:14;10.68;;;3.38;;
20890;SDS011;10605;52.968;8.844;2023-07-30T07:56:40;13.27;;;3.42;;
20890;SDS011;10605;52.968;8.844;2023-07-30T07:59:05;7.72;;;2.58;;
20890;SDS011;10605;52.968;8.844;2023-07-30T08:01:31;11.63;;;2.75;;
20890;SDS011;10605;52.968;8.844;2023-07-30T08:03:57;9.13;;;3.03;;
20890;SDS011;10605;52.968;8.844;2023-07-30T08:06:23;8.15;;;2.80;;
20890;SDS011;10605;52.968;8.844;2023-07-30T08:08:49;11.50;;;2.92;;
20890;SDS011;10605;52.968;8.844;2023-07-30T08:11:14;10.95;;;2.97;;
20890;SDS011;10605;52.968;8.844;2023-07-30T08:13:40;8.52;;;2.92;;
20890;SDS011;10605;52.968;8.844;2023-07-30T08:16:06;11.05;;;2.97;;
20890;SDS011;10605;52.968;8.844;2023-07-30T08:18:31;8.43;;;2.90;;
20890;SDS011;10605;52.968;8.844;2023-07-30T08:20:57;10.88;;;2.28;;
20890;SDS011;10605;52.968;8.844;2023-07-30T08:23:24;10.07;;;2.70;;
20890;SDS011;10605;52.968;8.844;2023-07-30T08:25:50;8.50;;;3.00;;
20890;SDS011;10605;52.968;8.844;2023-07-30T08:28:16;6.93;;;2.47;;
20890;SDS011;10605;52.968;8.844;2023-07-30T08:30:42;8.23;;;3.03;;
20890;SDS011;10605;52.968;8.844;2023-07-30T08:33:07;7.50;;;2.65;;
20890;SDS011;10605;52.968;8.844;2023-07-30T08:35:33;6.93;;;2.75;;
20890;SDS011;10605;52.968;8.844;2023-07-30T08:37:59;9.15;;;2.97;;
20890;SDS011;10605;52.968;8.844;2023-07-30T08:40:24;9.98;;;3.22;;
20890;SDS011;10605;52.968;8.844;2023-07-30T08:42:50;13.82;;;3.40;;
20890;SDS011;10605;52.968;8.844;2023-07-30T08:45:17;14.57;;;3.53;;
20890;SDS011;10605;52.968;8.844;2023-07-30T08:47:43;10.48;;;3.00;;
20890;SDS011;10605;52.968;8.844;2023-07-30T08:50:10;10.45;;;3.50;;
20890;SDS011;10605;52.968;8.844;2023-07-30T08:52:36;11.13;;;3.42;;
20890;SDS011;10605;52.968;8.844;2023-07-30T08:55:02;11.20;;;3.15;;
20890;SDS011;10605;52.968;8.844;2023-07-30T08:57:29;9.50;;;3.78;;
20890;SDS011;10605;52.968;8.844;2023-07-30T09:00:05;10.38;;;2.80;;
20890;SDS011;10605;52.968;8.844;2023-07-30T09:05:14;14.88;;;3.58;;
20890;SDS011;10605;52.968;8.844;2023-07-30T09:07:40;9.70;;;3.83;;
20890;SDS011;10605;52.968;8.844;2023-07-30T09:10:06;8.23;;;3.38;;
20890;SDS011;10605;52.968;8.844;2023-07-30T09:12:33;10.45;;;3.10;;
20890;SDS011;10605;52.968;8.844;2023-07-30T09:14:59;6.40;;;2.90;;
20890;SDS011;10605;52.968;8.844;2023-07-30T09:17:27;10.45;;;3.50;;
20890;SDS011;10605;52.968;8.844;2023-07-30T09:19:52;11.38;;;3.33;;
20890;SDS011;10605;52.968;8.844;2023-07-30T09:24:52;10.00;;;3.33;;
20890;SDS011;10605;52.968;8.844;2023-07-30T09:27:22;14.15;;;4.05;;
20890;SDS011;10605;52.968;8.844;2023-07-30T09:29:51;12.93;;;3.60;;
20890;SDS011;10605;52.968;8.844;2023-07-30T09:32:18;14.35;;;3.53;;
20890;SDS011;10605;52.968;8.844;2023-07-30T09:34:46;12.13;;;3.63;;
20890;SDS011;10605;52.968;8.844;2023-07-30T09:37:13;13.70;;;3.90;;
20890;SDS011;10605;52.968;8.844;2023-07-30T09:39:38;15.20;;;4.18;;
20890;SDS011;10605;52.968;8.844;2023-07-30T09:42:04;14.93;;;3.97;;
20890;SDS011;10605;52.968;8.844;2023-07-30T09:44:31;11.98;;;4.00;;
20890;SDS011;10605;52.968;8.844;2023-07-30T09:46:58;16.98;;;4.57;;
20890;SDS011;10605;52.968;8.844;2023-07-30T09:49:29;15.40;;;4.38;;
20890;SDS011;10605;52.968;8.844;2023-07-30T09:51:55;10.20;;;3.80;;
20890;SDS011;10605;52.968;8.844;2023-07-30T09:54:22;11.52;;;4.18;;
20890;SDS011;10605;52.968;8.844;2023-07-30T09:56:48;16.65;;;4.35;;
20890;SDS011;10605;52.968;8.844;2023-07-30T09:59:14;12.50;;;4.15;;
20890;SDS011;10605;52.968;8.844;2023-07-30T10:01:43;11.00;;;4.50;;
20890;SDS011;10605;52.968;8.844;2023-07-30T10:04:20;10.38;;;4.32;;
20890;SDS011;10605;52.968;8.844;2023-07-30T10:06:56;18.27;;;4.85;;
20890;SDS011;10605;52.968;8.844;2023-07-30T10:09:27;12.70;;;4.30;;
20890;SDS011;10605;52.968;8.844;2023-07-30T10:11:58;15.32;;;4.40;;
20890;SDS011;10605;52.968;8.844;2023-07-30T10:14:25;11.02;;;4.25;;
20890;SDS011;10605;52.968;8.844;2023-07-30T10:16:59;19.80;;;4.50;;
20890;SDS011;10605;52.968;8.844;2023-07-30T10:19:26;17.92;;;4.47;;
20890;SDS011;10605;52.968;8.844;2023-07-30T10:22:19;8.43;;;3.33;;
20890;SDS011;10605;52.968;8.844;2023-07-30T10:24:40;15.43;;;3.67;;
20890;SDS011;10605;52.968;8.844;2023-07-30T10:27:22;10.50;;;3.95;;
20890;SDS011;10605;52.968;8.844;2023-07-30T10:29:51;13.32;;;4.38;;
20890;SDS011;10605;52.968;8.844;2023-07-30T10:32:57;7.95;;;3.30;;
20890;SDS011;10605;52.968;8.844;2023-07-30T10:35:42;8.55;;;3.80;;
20890;SDS011;10605;52.968;8.844;2023-07-30T10:38:18;14.65;;;3.70;;
20890;SDS011;10605;52.968;8.844;2023-07-30T10:41:05;12.07;;;3.92;;
20890;SDS011;10605;52.968;8.844;2023-07-30T10:43:43;11.80;;;3.17;;
20890;SDS011;10605;52.968;8.844;2023-07-30T10:46:12;17.98;;;4.13;;
20890;SDS011;10605;52.968;8.844;2023-07-30T10:48:39;11.80;;;2.95;;
20890;SDS011;10605;52.968;8.844;2023-07-30T10:51:08;5.90;;;2.72;;
20890;SDS011;10605;52.968;8.844;2023-07-30T10:53:35;7.13;;;2.38;;
20890;SDS011;10605;52.968;8.844;2023-07-30T10:56:02;7.50;;;2.70;;
20890;SDS011;10605;52.968;8.844;2023-07-30T10:58:29;12.52;;;3.25;;
20890;SDS011;10605;52.968;8.844;2023-07-30T11:00:56;6.38;;;2.30;;
20890;SDS011;10605;52.968;8.844;2023-07-30T11:03:26;7.80;;;2.67;;
20890;SDS011;10605;52.968;8.844;2023-07-30T11:09:20;6.93;;;2.33;;
20890;SDS011;10605;52.968;8.844;2023-07-30T11:11:48;6.55;;;2.47;;
20890;SDS011;10605;52.968;8.844;2023-07-30T11:14:15;5.90;;;2.03;;
20890;SDS011;10605;52.968;8.844;2023-07-30T11:16:51;6.40;;;2.40;;
20890;SDS011;10605;52.968;8.844;2023-07-30T11:19:17;7.35;;;3.13;;
20890;SDS011;10605;52.968;8.844;2023-07-30T11:21:44;9.02;;;3.05;;
20890;SDS011;10605;52.968;8.844;2023-07-30T11:24:13;13.15;;;2.88;;
20890;SDS011;10605;52.968;8.844;2023-07-30T11:26:38;12.57;;;3.05;;
20890;SDS011;10605;52.968;8.844;2023-07-30T11:29:17;12.25;;;3.30;;
20890;SDS011;10605;52.968;8.844;2023-07-30T11:31:43;12.63;;;3.15;;
20890;SDS011;10605;52.968;8.844;2023-07-30T11:34:10;7.68;;;3.05;;
20890;SDS011;10605;52.968;8.844;2023-07-30T11:36:36;10.75;;;2.70;;
20890;SDS011;10605;52.968;8.844;2023-07-30T11:39:02;10.07;;;3.03;;
20890;SDS011;10605;52.968;8.844;2023-07-30T11:41:28;9.75;;;3.08;;
20890;SDS011;10605;52.968;8.844;2023-07-30T11:43:55;8.55;;;2.35;;
20890;SDS011;10605;52.968;8.844;2023-07-30T11:46:20;10.05;;;3.38;;
20890;SDS011;10605;52.968;8.844;2023-07-30T11:48:48;8.40;;;2.85;;
20890;SDS011;10605;52.968;8.844;2023-07-30T11:53:46;7.75;;;2.50;;
20890;SDS011;10605;52.968;8.844;2023-07-30T11:56:23;5.70;;;2.25;;
20890;SDS011;10605;52.968;8.844;2023-07-30T11:58:57;4.57;;;2.38;;
20890;SDS011;10605;52.968;8.844;2023-07-30T12:01:25;10.25;;;2.70;;
20890;SDS011;10605;52.968;8.844;2023-07-30T12:03:55;7.38;;;2.38;;
20890;SDS011;10605;52.968;8.844;2023-07-30T12:06:22;9.63;;;2.40;;
20890;SDS011;10605;52.968;8.844;2023-07-30T12:08:48;5.70;;;2.35;;
20890;SDS011;10605;52.968;8.844;2023-07-30T12:11:17;7.55;;;2.80;;
20890;SDS011;10605;52.968;8.844;2023-07-30T12:13:47;5.82;;;2.90;;
20890;SDS011;10605;52.968;8.844;2023-07-30T12:16:15;5.70;;;2.17;;
20890;SDS011;10605;52.968;8.844;2023-07-30T12:18:41;6.80;;;2.00;;
20890;SDS011;10605;52.968;8.844;2023-07-30T12:21:06;6.03;;;1.92;;
20890;SDS011;10605;52.968;8.844;2023-07-30T12:23:36;8.82;;;2.28;;
20890;SDS011;10605;52.968;8.844;2023-07-30T12:26:03;9.70;;;2.03;;
20890;SDS011;10605;52.968;8.844;2023-07-30T12:28:32;13.00;;;2.45;;
20890;SDS011;10605;52.968;8.844;2023-07-30T12:30:59;2.45;;;1.42;;
20890;SDS011;10605;52.968;8.844;2023-07-30T12:33:25;3.83;;;1.50;;
20890;SDS011;10605;52.968;8.844;2023-07-30T12:39:12;4.55;;;1.63;;
20890;SDS011;10605;52.968;8.844;2023-07-30T12:41:38;3.67;;;1.60;;
20890;SDS011;10605;52.968;8.844;2023-07-30T12:44:04;4.05;;;1.67;;
20890;SDS011;10605;52.968;8.844;2023-07-30T12:46:30;4.38;;;1.30;;
20890;SDS011;10605;52.968;8.844;2023-07-30T12:48:57;3.42;;;2.00;;
20890;SDS011;10605;52.968;8.844;2023-07-30T12:51:29;3.40;;;1.25;;
20890;SDS011;10605;52.968;8.844;2023-07-30T12:53:55;2.92;;;1.27;;
20890;SDS011;10605;52.968;8.844;2023-07-30T12:56:20;3.22;;;1.40;;
20890;SDS011;10605;52.968;8.844;2023-07-30T12:58:46;3.67;;;1.10;;
20890;SDS011;10605;52.968;8.844;2023-07-30T13:01:12;2.72;;;1.45;;
20890;SDS011;10605;52.968;8.844;2023-07-30T13:03:38;1.58;;;1.13;;
20890;SDS011;10605;52.968;8.844;2023-07-30T13:06:04;4.03;;;1.80;;
20890;SDS011;10605;52.968;8.844;2023-07-30T13:08:30;3.83;;;1.48;;
20890;SDS011;10605;52.968;8.844;2023-07-30T13:10:55;5.05;;;1.52;;
20890;SDS011;10605;52.968;8.844;2023-07-30T13:13:21;3.33;;;1.42;;
20890;SDS011;10605;52.968;8.844;2023-07-30T13:15:48;4.18;;;1.40;;
20890;SDS011;10605;52.968;8.844;2023-07-30T13:18:14;4.25;;;1.73;;
20890;SDS011;10605;52.968;8.844;2023-07-30T13:20:40;8.45;;;1.60;;
20890;SDS011;10605;52.968;8.844;2023-07-30T13:23:05;2.95;;;1.60;;
20890;SDS011;10605;52.968;8.844;2023-07-30T13:25:31;2.55;;;1.30;;
20890;SDS011;10605;52.968;8.844;2023-07-30T13:27:57;4.78;;;1.50;;
20890;SDS011;10605;52.968;8.844;2023-07-30T13:30:22;3.22;;;1.50;;
20890;SDS011;10605;52.968;8.844;2023-07-30T13:32:48;3.17;;;1.60;;
20890;SDS011;10605;52.968;8.844;2023-07-30T13:35:14;2.95;;;1.55;;
20890;SDS011;10605;52.968;8.844;2023-07-30T13:37:40;4.10;;;1.55;;
20890;SDS011;10605;52.968;8.844;2023-07-30T13:40:05;1.48;;;1.02;;
20890;SDS011;10605;52.968;8.844;2023-07-30T13:42:32;4.93;;;1.80;;
20890;SDS011;10605;52.968;8.844;2023-07-30T13:44:57;3.42;;;1.65;;
20890;SDS011;10605;52.968;8.844;2023-07-30T13:47:23;3.92;;;1.80;;
20890;SDS011;10605;52.968;8.844;2023-07-30T13:49:49;4.30;;;1.80;;
20890;SDS011;10605;52.968;8.844;2023-07-30T13:52:14;6.18;;;1.92;;
20890;SDS011;10605;52.968;8.844;2023-07-30T13:54:40;3.80;;;1.50;;
20890;SDS011;10605;52.968;8.844;2023-07-30T13:57:07;4.30;;;1.38;;
20890;SDS011;10605;52.968;8.844;2023-07-30T13:59:32;3.75;;;1.45;;
20890;SDS011;10605;52.968;8.844;2023-07-30T14:01:58;6.47;;;1.70;;
20890;SDS011;10605;52.968;8.844;2023-07-30T14:04:24;2.10;;;1.25;;
20890;SDS011;10605;52.968;8.844;2023-07-30T14:06:50;5.13;;;1.60;;
20890;SDS011;10605;52.968;8.844;2023-07-30T14:09:16;3.08;;;1.52;;
20890;SDS011;10605;52.968;8.844;2023-07-30T14:11:42;2.60;;;1.58;;
20890;SDS011;10605;52.968;8.844;2023-07-30T14:14:10;4.22;;;2.08;;
20890;SDS011;10605;52.968;8.844;2023-07-30T14:16:36;8.57;;;2.00;;
20890;SDS011;10605;52.968;8.844;2023-07-30T14:19:02;4.28;;;1.88;;
20890;SDS011;10605;52.968;8.844;2023-07-30T14:21:28;10.65;;;2.05;;
20890;SDS011;10605;52.968;8.844;2023-07-30T14:23:53;5.53;;;1.90;;
20890;SDS011;10605;52.968;8.844;2023-07-30T14:26:19;6.38;;;2.20;;
20890;SDS011;10605;52.968;8.844;2023-07-30T14:28:45;4.32;;;1.77;;
20890;SDS011;10605;52.968;8.844;2023-07-30T14:31:11;7.47;;;1.80;;
20890;SDS011;10605;52.968;8.844;2023-07-30T14:33:36;4.65;;;1.70;;
20890;SDS011;10605;52.968;8.844;2023-07-30T14:36:03;6.97;;;2.00;;
20890;SDS011;10605;52.968;8.844;2023-07-30T14:38:29;8.35;;;1.85;;
20890;SDS011;10605;52.968;8.844;2023-07-30T14:40:56;5.07;;;1.75;;
20890;SDS011;10605;52.968;8.844;2023-07-30T14:43:22;5.90;;;1.60;;
20890;SDS011;10605;52.968;8.844;2023-07-30T14:45:49;7.32;;;1.50;;
20890;SDS011;10605;52.968;8.844;2023-07-30T14:48:15;5.18;;;1.70;;
20890;SDS011;10605;52.968;8.844;2023-07-30T14:50:41;5.22;;;1.52;;
20890;SDS011;10605;52.968;8.844;2023-07-30T14:53:07;8.70;;;2.15;;
20890;SDS011;10605;52.968;8.844;2023-07-30T14:55:32;9.88;;;2.25;;
20890;SDS011;10605;52.968;8.844;2023-07-30T14:57:58;6.72;;;2.45;;